Time;durP1;ratioP1;P1;durP2;ratioP2;P2;SDS_P1;SDS_P2;PMS_P1;PMS_P2;Temp;Humidity;BMP_temperature;BMP_pressure;BME280_temperature;BME280_humidity;BME280_pressure;Samples;Min_cycle;Max_cycle;Signal;HPM_P1;HPM_P2
2022/07/20 00:01:34;;;;;;;;;;;;;;;17.20;100.00;101775.03;4916266;29;19919;-77
2022/07/20 00:03:59;;;;;;;;;;;;;;;17.17;100.00;101780.09;4886488;29;19926;-77
2022/07/20 00:06:24;;;;;;;;;;;;;;;17.16;100.00;101787.41;4903993;29;19979;-78
2022/07/20 00:11:34;;;;;;;;;;;;;;;17.14;100.00;101797.66;4880738;29;19949;-77
2022/07/20 00:14:00;;;;;;;;;;;;;;;17.14;100.00;101800.38;4895423;29;19924;-77
2022/07/20 00:16:28;;;;;;;;;;;;;;;17.10;100.00;101801.88;4900237;29;19919;-78
2022/07/20 00:18:54;;;;;;;;;;;;;;;17.04;100.00;101802.75;4882247;29;19915;-77
2022/07/20 00:21:20;;;;;;;;;;;;;;;16.94;100.00;101799.66;4898042;29;19921;-77
2022/07/20 00:23:46;;;;;;;;;;;;;;;16.89;100.00;101800.34;4898175;29;20002;-77
2022/07/20 00:26:11;;;;;;;;;;;;;;;16.82;100.00;101791.34;4911230;29;20377;-77
2022/07/20 00:28:36;;;;;;;;;;;;;;;16.73;100.00;101804.34;4904436;29;20005;-77
2022/07/20 00:31:01;;;;;;;;;;;;;;;16.70;100.00;101812.09;4906720;29;20413;-77
2022/07/20 00:33:27;;;;;;;;;;;;;;;16.67;100.00;101806.03;4914353;29;19923;-77
2022/07/20 00:35:52;;;;;;;;;;;;;;;16.64;100.00;101811.88;4901149;29;19946;-77
2022/07/20 00:38:17;;;;;;;;;;;;;;;16.59;100.00;101819.03;4914993;29;19965;-78
2022/07/20 00:40:42;;;;;;;;;;;;;;;16.52;100.00;101821.75;4918791;29;20017;-77
2022/07/20 00:43:08;;;;;;;;;;;;;;;16.48;100.00;101811.53;4888689;29;19980;-78
2022/07/20 00:45:34;;;;;;;;;;;;;;;16.43;100.00;101809.47;4899679;29;19971;-78
2022/07/20 00:47:59;;;;;;;;;;;;;;;16.41;100.00;101816.97;4892958;29;19920;-78
2022/07/20 00:50:25;;;;;;;;;;;;;;;16.42;100.00;101821.34;4900013;29;19919;-77
2022/07/20 00:52:50;;;;;;;;;;;;;;;16.37;100.00;101816.56;4897895;29;19923;-77
2022/07/20 00:55:16;;;;;;;;;;;;;;;16.34;100.00;101811.56;4887608;29;19941;-77
2022/07/20 00:57:41;;;;;;;;;;;;;;;16.29;100.00;101802.38;4900964;29;19919;-77
2022/07/20 01:00:09;;;;;;;;;;;;;;;16.23;100.00;101792.38;4915085;29;19926;-77
2022/07/20 01:02:34;;;;;;;;;;;;;;;16.25;100.00;101793.81;4915031;29;19930;-77
2022/07/20 01:05:00;;;;;;;;;;;;;;;16.27;100.00;101785.47;4917752;29;19915;-77
2022/07/20 01:07:25;;;;;;;;;;;;;;;16.28;100.00;101779.81;4891010;29;19916;-77
2022/07/20 01:09:51;;;;;;;;;;;;;;;16.28;100.00;101770.84;4867083;29;20039;-78
2022/07/20 01:12:16;;;;;;;;;;;;;;;16.25;100.00;101782.97;4880828;29;19923;-77
2022/07/20 01:14:41;;;;;;;;;;;;;;;16.26;100.00;101784.66;4903192;29;19923;-78
2022/07/20 01:17:07;;;;;;;;;;;;;;;16.27;100.00;101793.63;4917934;29;19915;-77
2022/07/20 01:19:32;;;;;;;;;;;;;;;16.29;100.00;101791.50;4911135;29;19928;-77
2022/07/20 01:21:57;;;;;;;;;;;;;;;16.30;100.00;101794.03;4895670;29;19931;-77
2022/07/20 01:24:22;;;;;;;;;;;;;;;16.30;100.00;101793.22;4919698;29;19927;-77
2022/07/20 01:26:48;;;;;;;;;;;;;;;16.27;100.00;101794.47;4920365;29;19949;-77
2022/07/20 01:29:14;;;;;;;;;;;;;;;16.26;100.00;101787.38;4900711;29;19923;-78
2022/07/20 01:31:39;;;;;;;;;;;;;;;16.26;100.00;101791.94;4901609;29;19927;-77
2022/07/20 01:34:05;;;;;;;;;;;;;;;16.22;100.00;101788.81;4898700;29;20346;-77
2022/07/20 01:36:30;;;;;;;;;;;;;;;16.19;100.00;101790.09;4896433;29;19954;-77
2022/07/20 01:38:56;;;;;;;;;;;;;;;16.16;100.00;101797.84;4882861;29;20030;-77
2022/07/20 01:41:21;;;;;;;;;;;;;;;16.15;100.00;101785.28;4866187;29;19931;-77
2022/07/20 01:43:46;;;;;;;;;;;;;;;16.12;100.00;101783.00;4883363;29;19938;-78
2022/07/20 01:46:11;;;;;;;;;;;;;;;16.05;100.00;101779.47;4878462;29;19975;-78
2022/07/20 01:48:37;;;;;;;;;;;;;;;15.98;100.00;101774.88;4876855;29;19975;-77
2022/07/20 01:51:02;;;;;;;;;;;;;;;15.94;100.00;101776.34;4905365;29;19919;-78
2022/07/20 01:53:27;;;;;;;;;;;;;;;15.89;100.00;101762.59;4908003;29;19941;-77
2022/07/20 01:55:53;;;;;;;;;;;;;;;15.84;100.00;101756.94;4904242;29;19919;-77
2022/07/20 01:58:18;;;;;;;;;;;;;;;15.81;100.00;101757.38;4908150;29;20003;-77
2022/07/20 02:00:44;;;;;;;;;;;;;;;15.79;100.00;101755.91;4901059;29;19919;-77
2022/07/20 02:03:09;;;;;;;;;;;;;;;15.74;100.00;101748.41;4900353;29;19931;-78
2022/07/20 02:05:34;;;;;;;;;;;;;;;15.73;100.00;101744.03;4917230;29;20014;-77
2022/07/20 02:07:59;;;;;;;;;;;;;;;15.71;100.00;101741.50;4887466;29;20408;-78
2022/07/20 02:10:24;;;;;;;;;;;;;;;15.71;100.00;101732.53;4901042;29;20409;-77
2022/07/20 02:12:50;;;;;;;;;;;;;;;15.71;100.00;101732.53;4901181;29;19946;-78
2022/07/20 02:16:14;;;;;;;;;;;;;;;15.70;100.00;101723.56;4900915;29;19920;-78
2022/07/20 02:18:07;;;;;;;;;;;;;;;15.74;100.00;101719.38;4901161;29;19920;-77
2022/07/20 02:20:33;;;;;;;;;;;;;;;15.75;100.00;101731.06;4913716;29;20234;-77
2022/07/20 02:22:58;;;;;;;;;;;;;;;15.72;100.00;101726.06;4920760;29;19922;-77
2022/07/20 02:25:24;;;;;;;;;;;;;;;15.73;100.00;101728.56;4916778;29;19926;-77
2022/07/20 02:27:49;;;;;;;;;;;;;;;15.78;100.00;101727.94;4904292;29;19930;-77
2022/07/20 02:30:14;;;;;;;;;;;;;;;15.78;100.00;101708.94;4896941;29;19945;-77
2022/07/20 02:32:40;;;;;;;;;;;;;;;15.78;100.00;101718.97;4886282;29;19919;-78
2022/07/20 02:35:05;;;;;;;;;;;;;;;15.78;100.00;101719.78;4901510;29;19924;-77
2022/07/20 02:37:30;;;;;;;;;;;;;;;15.81;100.00;101716.66;4884093;29;20249;-77
2022/07/20 02:39:56;;;;;;;;;;;;;;;15.82;100.00;101703.91;4885916;29;19923;-77
2022/07/20 02:42:21;;;;;;;;;;;;;;;15.85;100.00;101701.59;4869257;29;19919;-77
2022/07/20 02:44:46;;;;;;;;;;;;;;;15.91;100.00;101697.22;4901428;29;19943;-77
2022/07/20 02:47:11;;;;;;;;;;;;;;;15.98;100.00;101703.47;4900318;29;19920;-77
2022/07/20 02:49:36;;;;;;;;;;;;;;;16.04;100.00;101704.50;4901462;29;20258;-77
2022/07/20 02:52:02;;;;;;;;;;;;;;;16.09;100.00;101710.09;4901009;29;20364;-77
2022/07/20 02:54:27;;;;;;;;;;;;;;;16.14;100.00;101713.03;4900540;29;19998;-77
2022/07/20 02:56:52;;;;;;;;;;;;;;;16.19;100.00;101711.34;4922185;29;19914;-78
2022/07/20 02:59:17;;;;;;;;;;;;;;;16.23;100.00;101706.31;4890738;29;19919;-77
2022/07/20 03:01:42;;;;;;;;;;;;;;;16.28;100.00;101725.50;4903354;29;19946;-77
2022/07/20 03:04:08;;;;;;;;;;;;;;;16.35;100.00;101729.03;4898985;29;19992;-77
2022/07/20 03:06:33;;;;;;;;;;;;;;;16.47;100.00;101729.19;4883682;29;20861;-77
2022/07/20 03:08:58;;;;;;;;;;;;;;;16.59;100.00;101729.38;4903272;29;20006;-78
2022/07/20 03:11:23;;;;;;;;;;;;;;;16.73;100.00;101736.41;4919536;29;20040;-77
2022/07/20 03:13:49;;;;;;;;;;;;;;;16.94;100.00;101739.84;4884070;29;19923;-77
2022/07/20 03:16:14;;;;;;;;;;;;;;;17.14;100.00;101748.72;4888657;29;19923;-78
2022/07/20 03:18:39;;;;;;;;;;;;;;;17.40;100.00;101750.41;4902705;29;20520;-77
2022/07/20 03:21:04;;;;;;;;;;;;;;;17.57;100.00;101742.53;4901792;29;19970;-77
2022/07/20 03:23:30;;;;;;;;;;;;;;;17.60;100.00;101750.25;4916401;29;20010;-77
2022/07/20 03:25:59;;;;;;;;;;;;;;;17.66;100.00;101752.09;4919783;29;19919;-77
2022/07/20 03:28:25;;;;;;;;;;;;;;;17.57;100.00;101746.06;4890774;29;19967;-77
2022/07/20 03:30:50;;;;;;;;;;;;;;;17.65;100.00;101747.69;4883697;29;19923;-78
2022/07/20 03:33:15;;;;;;;;;;;;;;;17.84;100.00;101741.25;4900149;29;19923;-77
2022/07/20 03:35:41;;;;;;;;;;;;;;;17.97;100.00;101747.63;4909315;29;19919;-77
2022/07/20 03:38:06;;;;;;;;;;;;;;;18.11;100.00;101740.13;4903448;29;19923;-78
2022/07/20 03:40:31;;;;;;;;;;;;;;;18.33;100.00;101748.69;4902538;29;19930;-78
2022/07/20 03:42:56;;;;;;;;;;;;;;;18.61;100.00;101757.16;4903597;29;19919;-78
2022/07/20 03:45:22;;;;;;;;;;;;;;;18.83;100.00;101754.78;4893413;29;19900;-77
2022/07/20 03:47:47;;;;;;;;;;;;;;;19.00;100.00;101749.50;4908531;29;19963;-77
2022/07/20 03:50:12;;;;;;;;;;;;;;;18.99;100.00;101747.84;4934666;29;19933;-77
2022/07/20 03:52:37;;;;;;;;;;;;;;;18.92;100.00;101744.41;4915310;29;19923;-78
2022/07/20 03:55:03;;;;;;;;;;;;;;;18.75;100.00;101745.03;4902179;29;19923;-77
2022/07/20 03:57:28;;;;;;;;;;;;;;;18.52;100.00;101743.00;4899107;29;19915;-78
2022/07/20 03:59:53;;;;;;;;;;;;;;;18.37;100.00;101747.19;4887145;29;19975;-78
2022/07/20 04:02:18;;;;;;;;;;;;;;;18.26;100.00;101749.59;4894103;29;19919;-77
2022/07/20 04:04:43;;;;;;;;;;;;;;;18.19;100.00;101748.84;4899564;29;19930;-77
2022/07/20 04:07:09;;;;;;;;;;;;;;;18.17;100.00;101758.31;4896791;29;19971;-77
2022/07/20 04:09:43;;;;;;;;;;;;;;;18.14;100.00;101764.19;4884156;29;20354;-77
2022/07/20 04:12:10;;;;;;;;;;;;;;;18.15;100.00;101755.00;4879855;29;19924;-78
2022/07/20 04:14:36;;;;;;;;;;;;;;;18.14;100.00;101759.59;4899266;29;19994;-77
2022/07/20 04:17:02;;;;;;;;;;;;;;;18.16;100.00;101757.47;4897931;29;19919;-78
2022/07/20 04:19:27;;;;;;;;;;;;;;;18.18;100.00;101746.34;4901596;29;19930;-77
2022/07/20 04:22:01;;;;;;;;;;;;;;;18.25;100.00;101749.84;4915098;29;19919;-77
2022/07/20 04:24:26;;;;;;;;;;;;;;;18.36;100.00;101750.97;4901201;29;19970;-78
2022/07/20 04:26:53;;;;;;;;;;;;;;;18.80;100.00;101757.16;4914602;29;20006;-78
2022/07/20 04:29:19;;;;;;;;;;;;;;;19.69;100.00;101756.19;4914160;29;20349;-78
2022/07/20 04:31:44;;;;;;;;;;;;;;;19.53;99.22;101759.59;4881356;29;20002;-77
2022/07/20 04:34:09;;;;;;;;;;;;;;;19.25;100.00;101755.66;4898153;29;19938;-78
2022/07/20 04:36:35;;;;;;;;;;;;;;;19.09;100.00;101750.03;4906839;29;19915;-78
2022/07/20 04:39:00;;;;;;;;;;;;;;;19.01;100.00;101752.03;4902342;29;19915;-78
2022/07/20 04:41:25;;;;;;;;;;;;;;;19.02;100.00;101747.41;4901451;29;19919;-78
2022/07/20 04:43:51;;;;;;;;;;;;;;;19.20;100.00;101755.53;4902603;29;19929;-78
2022/07/20 04:46:16;;;;;;;;;;;;;;;19.45;100.00;101746.31;4887717;29;20316;-77
2022/07/20 04:48:41;;;;;;;;;;;;;;;19.45;100.00;101751.78;4882869;29;19915;-78
2022/07/20 04:51:06;;;;;;;;;;;;;;;19.57;100.00;101749.03;4879881;29;20034;-78
2022/07/20 04:53:32;;;;;;;;;;;;;;;19.97;99.55;101751.94;4913900;29;20002;-78
2022/07/20 04:55:57;;;;;;;;;;;;;;;20.56;95.91;101741.75;4901104;29;19970;-77
2022/07/20 04:58:23;;;;;;;;;;;;;;;20.70;95.37;101741.47;4897645;29;19919;-78
2022/07/20 05:00:49;;;;;;;;;;;;;;;20.95;93.27;101741.94;4869640;29;19955;-78
2022/07/20 05:03:14;;;;;;;;;;;;;;;21.42;90.76;101736.19;4902731;29;20349;-78
2022/07/20 05:05:39;;;;;;;;;;;;;;;21.20;91.50;101735.28;4898462;29;20235;-78
2022/07/20 05:08:04;;;;;;;;;;;;;;;21.51;90.93;101725.66;4880762;29;20278;-78
2022/07/20 05:10:31;;;;;;;;;;;;;;;22.33;87.03;101735.09;4899413;29;19916;-78
2022/07/20 05:12:56;;;;;;;;;;;;;;;22.95;83.98;101731.97;4882203;29;19919;-78
2022/07/20 05:15:23;;;;;;;;;;;;;;;23.36;81.23;101730.41;4900085;29;19926;-78
2022/07/20 05:17:49;;;;;;;;;;;;;;;23.56;81.14;101729.75;4882475;29;19915;-78
2022/07/20 05:20:14;;;;;;;;;;;;;;;23.97;79.66;101726.44;4906199;29;19921;-78
2022/07/20 05:22:39;;;;;;;;;;;;;;;24.00;80.39;101723.16;4886461;29;19923;-78
2022/07/20 05:25:04;;;;;;;;;;;;;;;24.13;78.73;101718.00;4886689;29;19919;-78
2022/07/20 05:27:30;;;;;;;;;;;;;;;24.17;80.33;101712.78;4901966;29;19919;-78
2022/07/20 05:29:56;;;;;;;;;;;;;;;24.19;82.28;101716.13;4898866;29;19962;-78
2022/07/20 05:32:21;;;;;;;;;;;;;;;24.23;81.70;101713.66;4918875;29;19926;-78
2022/07/20 05:34:46;;;;;;;;;;;;;;;24.26;79.34;101713.13;4895384;29;19924;-78
2022/07/20 05:37:12;;;;;;;;;;;;;;;24.46;79.56;101720.66;4910816;29;19935;-78
2022/07/20 05:39:37;;;;;;;;;;;;;;;24.61;81.64;101723.47;4902420;29;19931;-79
2022/07/20 05:42:03;;;;;;;;;;;;;;;24.59;76.04;101720.97;4868475;29;19924;-78
2022/07/20 05:44:28;;;;;;;;;;;;;;;24.63;79.31;101714.91;4900381;29;19966;-78
2022/07/20 05:46:54;;;;;;;;;;;;;;;24.77;78.75;101703.13;4900753;29;19919;-78
2022/07/20 05:49:19;;;;;;;;;;;;;;;24.79;77.61;101711.91;4886626;29;19947;-78
2022/07/20 05:51:44;;;;;;;;;;;;;;;24.66;80.12;101698.69;4870514;29;19923;-79
2022/07/20 05:54:09;;;;;;;;;;;;;;;24.55;80.96;101699.78;4871137;29;20357;-79
2022/07/20 05:56:34;;;;;;;;;;;;;;;24.55;81.12;101702.53;4903277;29;20022;-79
2022/07/20 05:59:00;;;;;;;;;;;;;;;24.64;79.81;101695.41;4913345;29;20033;-79
2022/07/20 06:01:25;;;;;;;;;;;;;;;24.58;77.39;101690.97;4891350;29;19919;-79
2022/07/20 06:03:50;;;;;;;;;;;;;;;24.60;75.44;101700.63;4902877;29;19982;-78
2022/07/20 06:06:15;;;;;;;;;;;;;;;24.76;75.99;101701.47;4900417;29;19919;-78
2022/07/20 06:08:41;;;;;;;;;;;;;;;24.85;76.70;101694.31;4904422;29;19962;-78
2022/07/20 06:11:08;;;;;;;;;;;;;;;24.88;75.71;101703.97;4892587;29;19928;-77
2022/07/20 06:13:35;;;;;;;;;;;;;;;24.94;74.55;101704.81;4927082;29;19973;-79
2022/07/20 06:16:00;;;;;;;;;;;;;;;25.01;73.34;101699.84;4890551;29;19915;-79
2022/07/20 06:18:25;;;;;;;;;;;;;;;25.21;74.45;101710.91;4887671;29;19934;-79
2022/07/20 06:20:51;;;;;;;;;;;;;;;25.33;74.41;101709.78;4869647;29;20457;-78
2022/07/20 06:23:17;;;;;;;;;;;;;;;25.41;69.51;101703.72;4885209;29;20350;-78
2022/07/20 06:25:42;;;;;;;;;;;;;;;25.56;73.44;101711.97;4899029;29;20012;-78
2022/07/20 06:28:08;;;;;;;;;;;;;;;25.61;71.74;101711.16;4884888;29;20006;-79
2022/07/20 06:30:35;;;;;;;;;;;;;;;25.69;71.91;101705.88;4916912;29;19992;-79
2022/07/20 06:33:00;;;;;;;;;;;;;;;25.82;71.79;101703.69;4904184;29;20238;-78
2022/07/20 06:35:25;;;;;;;;;;;;;;;25.83;71.03;101708.94;4900896;29;19999;-78
2022/07/20 06:37:51;;;;;;;;;;;;;;;25.87;69.42;101698.16;4919732;29;19919;-78
2022/07/20 06:40:16;;;;;;;;;;;;;;;25.91;67.14;101694.56;4904255;29;20346;-77
2022/07/20 06:42:43;;;;;;;;;;;;;;;25.95;67.71;101694.81;4904202;29;20227;-79
2022/07/20 06:45:08;;;;;;;;;;;;;;;26.05;65.35;101686.50;4914029;29;19931;-78
2022/07/20 06:47:33;;;;;;;;;;;;;;;26.14;66.83;101684.81;4882564;29;19930;-78
2022/07/20 06:49:58;;;;;;;;;;;;;;;26.17;61.83;101692.53;4884249;29;19920;-78
2022/07/20 06:52:24;;;;;;;;;;;;;;;26.28;64.31;101701.56;4900245;29;19923;-78
2022/07/20 06:54:49;;;;;;;;;;;;;;;26.44;65.12;101700.38;4884083;29;19953;-78
2022/07/20 06:57:14;;;;;;;;;;;;;;;26.42;64.52;101696.25;4895677;29;19923;-79
2022/07/20 06:59:40;;;;;;;;;;;;;;;26.51;65.02;101700.13;4904582;29;19915;-78
2022/07/20 07:02:06;;;;;;;;;;;;;;;26.43;61.86;101696.00;4916668;29;19919;-79
2022/07/20 07:04:31;;;;;;;;;;;;;;;26.50;63.70;101697.66;4904521;29;19935;-78
2022/07/20 07:06:58;;;;;;;;;;;;;;;26.57;62.66;101698.16;4887562;29;19973;-78
2022/07/20 07:09:23;;;;;;;;;;;;;;;26.68;61.25;101705.25;4904071;29;20050;-79
2022/07/20 07:11:48;;;;;;;;;;;;;;;26.89;62.58;101701.25;4901077;29;20444;-78
2022/07/20 07:14:15;;;;;;;;;;;;;;;27.01;62.99;101700.06;4902837;29;20630;-79
2022/07/20 07:16:40;;;;;;;;;;;;;;;26.91;61.97;101698.19;4888936;29;19923;-79
2022/07/20 07:19:05;;;;;;;;;;;;;;;26.97;62.69;101694.28;4874977;29;19942;-79
2022/07/20 07:21:31;;;;;;;;;;;;;;;26.91;61.47;101693.50;4876559;29;19994;-79
2022/07/20 07:23:56;;;;;;;;;;;;;;;26.96;63.19;101689.06;4909444;29;19931;-79
2022/07/20 07:26:22;;;;;;;;;;;;;;;27.01;62.73;101687.06;4899087;29;19931;-78
2022/07/20 07:28:48;;;;;;;;;;;;;;;27.03;62.82;101690.38;4900561;29;19919;-78
2022/07/20 07:31:15;;;;;;;;;;;;;;;27.05;62.63;101687.31;4905372;29;19920;-79
2022/07/20 07:33:41;;;;;;;;;;;;;;;26.98;61.59;101679.34;4884933;29;20357;-78
2022/07/20 07:36:07;;;;;;;;;;;;;;;27.03;61.39;101676.56;4889153;29;19937;-78
2022/07/20 07:38:32;;;;;;;;;;;;;;;27.13;62.63;101676.50;4890620;29;20014;-78
2022/07/20 07:40:58;;;;;;;;;;;;;;;27.20;63.20;101672.59;4899926;29;19915;-78
2022/07/20 07:43:23;;;;;;;;;;;;;;;27.17;62.36;101669.28;4900493;29;19969;-78
2022/07/20 07:45:48;;;;;;;;;;;;;;;27.17;62.78;101680.34;4913216;29;19986;-78
2022/07/20 07:48:14;;;;;;;;;;;;;;;27.21;63.13;101682.50;4894007;29;19919;-78
2022/07/20 07:50:40;;;;;;;;;;;;;;;27.25;63.47;101678.06;4895729;29;19991;-78
2022/07/20 07:53:07;;;;;;;;;;;;;;;27.07;62.10;101682.34;4881295;29;19960;-78
2022/07/20 07:55:33;;;;;;;;;;;;;;;27.11;63.80;101678.69;4880581;29;19931;-78
2022/07/20 07:58:13;;;;;;;;;;;;;;;27.04;63.59;101675.44;4881574;29;19920;-78
2022/07/20 08:00:40;;;;;;;;;;;;;;;27.01;63.06;101675.19;4896143;29;20338;-78
2022/07/20 08:03:05;;;;;;;;;;;;;;;26.95;63.34;101671.63;4888075;29;19930;-78
2022/07/20 08:05:31;;;;;;;;;;;;;;;26.89;63.31;101672.81;4902068;29;20286;-78
2022/07/20 08:07:56;;;;;;;;;;;;;;;26.95;63.73;101668.88;4919893;29;19923;-78
2022/07/20 08:10:21;;;;;;;;;;;;;;;26.97;63.68;101679.66;4911875;29;19923;-78
2022/07/20 08:12:48;;;;;;;;;;;;;;;26.91;63.46;101676.91;4879632;29;19938;-78
2022/07/20 08:15:13;;;;;;;;;;;;;;;27.05;63.86;101679.03;4895623;29;19923;-78
2022/07/20 08:17:38;;;;;;;;;;;;;;;27.05;63.92;101684.53;4880545;29;19930;-78
2022/07/20 08:20:06;;;;;;;;;;;;;;;27.22;63.69;101684.16;4888133;29;19974;-78
2022/07/20 08:22:31;;;;;;;;;;;;;;;27.31;64.59;101686.00;4906862;29;20327;-78
2022/07/20 08:24:56;;;;;;;;;;;;;;;27.40;63.96;101691.75;4908284;29;19950;-79
2022/07/20 08:27:22;;;;;;;;;;;;;;;27.54;64.47;101687.16;4893393;29;19934;-79
2022/07/20 08:29:47;;;;;;;;;;;;;;;27.53;64.26;101690.22;4917895;29;19919;-79
2022/07/20 08:32:13;;;;;;;;;;;;;;;27.37;63.42;101695.91;4892392;29;20398;-80
2022/07/20 08:34:38;;;;;;;;;;;;;;;27.40;64.14;101692.56;4908020;29;19974;-78
2022/07/20 08:37:03;;;;;;;;;;;;;;;27.41;64.10;101696.13;4897145;29;19920;-79
2022/07/20 08:39:29;;;;;;;;;;;;;;;27.48;64.27;101691.09;4883479;29;19935;-78
2022/07/20 08:41:54;;;;;;;;;;;;;;;27.50;64.57;101688.06;4907023;29;19915;-79
2022/07/20 08:44:20;;;;;;;;;;;;;;;27.43;64.79;101673.75;4907659;29;19942;-79
2022/07/20 08:46:46;;;;;;;;;;;;;;;27.51;64.49;101667.56;4890270;29;19930;-78
2022/07/20 08:49:16;;;;;;;;;;;;;;;27.50;64.37;101669.53;4874368;29;19919;-79
2022/07/20 08:51:42;;;;;;;;;;;;;;;27.58;64.55;101671.66;4899104;29;19927;-79
2022/07/20 08:54:07;;;;;;;;;;;;;;;27.75;63.42;101673.97;4903322;29;20001;-79
2022/07/20 08:56:32;;;;;;;;;;;;;;;27.74;63.91;101677.00;4892024;29;19998;-79
2022/07/20 08:58:58;;;;;;;;;;;;;;;27.69;64.23;101682.59;4901877;29;19927;-80
2022/07/20 09:01:23;;;;;;;;;;;;;;;27.64;64.13;101681.53;4884927;29;20006;-79
2022/07/20 09:04:08;;;;;;;;;;;;;;;27.77;63.81;101687.50;4902295;29;19993;-79
2022/07/20 09:06:34;;;;;;;;;;;;;;;27.85;64.16;101684.94;4915786;29;20388;-79
2022/07/20 09:09:01;;;;;;;;;;;;;;;27.97;63.70;101683.69;4899956;29;20261;-79
2022/07/20 09:11:27;;;;;;;;;;;;;;;28.03;62.91;101677.78;4883190;29;19988;-79
2022/07/20 09:13:52;;;;;;;;;;;;;;;28.03;62.40;101676.97;4900154;29;20288;-79
2022/07/20 09:16:36;;;;;;;;;;;;;;;28.06;60.41;101673.63;4884915;29;20827;-79
2022/07/20 09:19:02;;;;;;;;;;;;;;;28.18;62.60;101687.84;4908727;29;19927;-79
2022/07/20 09:21:29;;;;;;;;;;;;;;;28.25;61.87;101687.50;4912414;29;19923;-79
2022/07/20 09:23:56;;;;;;;;;;;;;;;28.34;61.61;101683.78;4922490;29;19927;-79
2022/07/20 09:26:22;;;;;;;;;;;;;;;28.32;60.91;101682.41;4905253;29;19919;-78
2022/07/20 09:28:49;;;;;;;;;;;;;;;28.37;60.73;101682.31;4922093;29;19925;-79
2022/07/20 09:31:19;;;;;;;;;;;;;;;28.41;60.44;101677.91;4906191;29;20281;-78
2022/07/20 09:33:52;;;;;;;;;;;;;;;28.46;60.50;101683.34;4886461;29;20257;-79
2022/07/20 09:36:18;;;;;;;;;;;;;;;28.53;59.47;101682.97;4898349;29;20242;-78
2022/07/20 09:38:43;;;;;;;;;;;;;;;28.64;59.75;101686.41;4901612;29;20002;-78
2022/07/20 09:41:28;;;;;;;;;;;;;;;28.65;59.39;101675.03;4885088;29;20034;-78
2022/07/20 09:43:54;;;;;;;;;;;;;;;28.67;59.03;101686.63;4887445;29;19923;-79
2022/07/20 09:46:20;;;;;;;;;;;;;;;28.74;59.41;101689.88;4906318;29;19947;-79
2022/07/20 09:48:47;;;;;;;;;;;;;;;28.81;58.75;101689.50;4893320;29;19991;-79
2022/07/20 09:51:23;;;;;;;;;;;;;;;28.85;59.20;101698.84;4891516;29;20405;-79
2022/07/20 09:53:49;;;;;;;;;;;;;;;28.90;59.00;101692.38;4905238;29;19986;-79
2022/07/20 09:56:15;;;;;;;;;;;;;;;28.96;58.90;101683.69;4873489;29;19919;-79
2022/07/20 09:58:41;;;;;;;;;;;;;;;29.06;57.71;101684.69;4898174;29;19920;-79
2022/07/20 10:01:06;;;;;;;;;;;;;;;29.16;57.82;101679.78;4883230;29;20006;-79
2022/07/20 10:03:32;;;;;;;;;;;;;;;29.17;57.21;101683.38;4912065;29;19922;-79
2022/07/20 10:05:58;;;;;;;;;;;;;;;29.24;57.74;101684.63;4922334;29;20017;-79
2022/07/20 10:08:24;;;;;;;;;;;;;;;29.33;57.10;101693.06;4921381;29;20346;-79
2022/07/20 10:10:49;;;;;;;;;;;;;;;29.36;56.90;101691.63;4896395;29;19920;-79
2022/07/20 10:13:14;;;;;;;;;;;;;;;29.34;55.98;101691.09;4893986;29;19923;-79
2022/07/20 10:16:00;;;;;;;;;;;;;;;29.45;56.42;101685.09;4905189;29;19927;-79
2022/07/20 10:18:26;;;;;;;;;;;;;;;29.52;55.83;101686.63;4902048;29;20358;-79
2022/07/20 10:20:51;;;;;;;;;;;;;;;29.57;55.93;101684.59;4919531;29;19915;-79
2022/07/20 10:23:16;;;;;;;;;;;;;;;29.48;54.98;101678.13;4910989;29;19927;-79
2022/07/20 10:25:42;;;;;;;;;;;;;;;29.48;55.69;101667.03;4893226;29;19986;-79
2022/07/20 10:28:27;;;;;;;;;;;;;;;29.50;55.21;101664.75;4888717;29;19915;-80
2022/07/20 10:30:57;;;;;;;;;;;;;;;29.59;54.75;101660.13;4885110;29;19915;-79
2022/07/20 10:33:23;;;;;;;;;;;;;;;29.62;54.98;101664.28;4900559;29;20385;-79
2022/07/20 10:35:49;;;;;;;;;;;;;;;29.53;53.54;101657.78;4890380;29;19927;-79
2022/07/20 10:38:18;;;;;;;;;;;;;;;29.57;53.45;101651.31;4881974;29;20039;-79
2022/07/20 10:44:05;;;;;;;;;;;;;;;29.42;53.74;101629.41;4921590;29;19929;-79
2022/07/20 10:46:32;;;;;;;;;;;;;;;29.54;53.34;101642.75;4921418;29;19922;-79
2022/07/20 10:48:59;;;;;;;;;;;;;;;29.67;53.42;101645.59;4901778;29;19927;-79
2022/07/20 10:51:24;;;;;;;;;;;;;;;29.68;52.59;101647.25;4903822;29;19915;-79
2022/07/20 10:53:49;;;;;;;;;;;;;;;29.75;51.71;101646.81;4895602;29;19928;-78
2022/07/20 10:56:16;;;;;;;;;;;;;;;29.77;51.96;101633.47;4880860;29;19931;-78
2022/07/20 10:58:42;;;;;;;;;;;;;;;29.74;51.62;101634.09;4886275;29;20014;-80
2022/07/20 11:01:11;;;;;;;;;;;;;;;29.84;51.12;101628.34;4885268;29;19927;-79
2022/07/20 11:03:55;;;;;;;;;;;;;;;29.85;51.79;101629.97;4882416;29;19915;-79
2022/07/20 11:06:23;;;;;;;;;;;;;;;29.78;50.18;101624.00;4900652;29;19926;-79
2022/07/20 11:08:51;;;;;;;;;;;;;;;29.84;51.25;101625.56;4901282;29;19927;-80
2022/07/20 11:11:19;;;;;;;;;;;;;;;29.94;50.78;101617.00;4900301;29;19979;-79
2022/07/20 11:13:48;;;;;;;;;;;;;;;30.03;50.44;101627.38;4902235;29;19919;-79
2022/07/20 11:16:16;;;;;;;;;;;;;;;30.18;50.64;101616.78;4904673;29;19915;-82
2022/07/20 11:18:41;;;;;;;;;;;;;;;30.36;50.63;101617.75;4919967;29;19915;-80
2022/07/20 11:21:08;;;;;;;;;;;;;;;30.52;49.55;101621.00;4901541;29;19923;-80
2022/07/20 11:23:41;;;;;;;;;;;;;;;30.52;47.56;101617.41;4889079;29;19924;-81
2022/07/20 11:26:07;;;;;;;;;;;;;;;30.62;47.56;101622.72;4885224;29;19945;-79
2022/07/20 11:28:36;;;;;;;;;;;;;;;30.65;47.74;101620.13;4901394;29;19979;-80
2022/07/20 11:31:02;;;;;;;;;;;;;;;30.78;47.41;101621.22;4909177;29;19915;-80
2022/07/20 11:33:32;;;;;;;;;;;;;;;30.89;47.71;101622.63;4891893;29;19934;-80
2022/07/20 11:36:06;;;;;;;;;;;;;;;30.85;43.96;101618.00;4888149;29;19931;-80
2022/07/20 11:38:36;;;;;;;;;;;;;;;31.03;46.89;101611.41;4911167;29;19919;-80
2022/07/20 11:41:02;;;;;;;;;;;;;;;31.08;44.10;101608.50;4901684;29;20379;-80
2022/07/20 11:43:28;;;;;;;;;;;;;;;31.04;43.92;101601.94;4897406;29;19923;-81
2022/07/20 11:45:54;;;;;;;;;;;;;;;31.03;45.09;101610.59;4904298;29;20368;-80
2022/07/20 11:48:21;;;;;;;;;;;;;;;31.09;43.94;101612.09;4937707;29;19915;-81
2022/07/20 11:50:46;;;;;;;;;;;;;;;31.12;44.91;101598.38;4905203;29;20425;-80
2022/07/20 11:53:28;;;;;;;;;;;;;;;31.28;43.53;101604.34;4894346;29;19928;-80
2022/07/20 11:55:55;;;;;;;;;;;;;;;31.48;44.66;101602.16;4884896;29;19996;-78
2022/07/20 11:58:31;;;;;;;;;;;;;;;31.48;43.40;101602.16;4881998;29;20348;-79
2022/07/20 12:00:57;;;;;;;;;;;;;;;31.56;43.28;101593.84;4915818;29;19957;-80
2022/07/20 12:03:28;;;;;;;;;;;;;;;31.56;42.43;101598.59;4903003;29;19923;-79
2022/07/20 12:05:54;;;;;;;;;;;;;;;31.60;43.13;101594.03;4918408;29;19915;-80
2022/07/20 12:08:19;;;;;;;;;;;;;;;31.63;42.33;101595.34;4913693;29;20002;-79
2022/07/20 12:10:45;;;;;;;;;;;;;;;31.65;42.20;101591.09;4882803;29;20359;-79
2022/07/20 12:13:13;;;;;;;;;;;;;;;31.60;41.94;101594.03;4899489;29;19916;-81
2022/07/20 12:15:38;;;;;;;;;;;;;;;31.63;42.07;101593.38;4871246;29;19935;-79
2022/07/20 12:18:04;;;;;;;;;;;;;;;31.53;41.48;101599.25;4903890;29;19919;-80
2022/07/20 12:20:30;;;;;;;;;;;;;;;31.62;40.76;101602.84;4913681;29;19915;-80
2022/07/20 12:22:57;;;;;;;;;;;;;;;31.62;39.25;101602.84;4914447;29;20027;-80
2022/07/20 12:25:33;;;;;;;;;;;;;;;31.76;40.34;101603.56;4900536;29;19965;-81
2022/07/20 12:27:58;;;;;;;;;;;;;;;31.98;41.49;101610.19;4913981;29;20447;-81
2022/07/20 12:30:34;;;;;;;;;;;;;;;32.13;40.90;101612.50;4917156;29;19923;-81
2022/07/20 12:33:11;;;;;;;;;;;;;;;32.14;40.38;101591.84;4903490;29;19906;-82
2022/07/20 12:35:37;;;;;;;;;;;;;;;32.15;39.64;101581.53;4928948;29;19914;-84